sensor_id;sensor_type;location;lat;lon;timestamp;temperature;humidity
13035;DHT22;6584;48.022;11.810;2022-09-09T00:00:24;15.00;99.90
13035;DHT22;6584;48.022;11.810;2022-09-09T00:05:27;15.10;99.90
13035;DHT22;6584;48.022;11.810;2022-09-09T00:07:56;15.10;99.90
13035;DHT22;6584;48.022;11.810;2022-09-09T00:12:57;15.10;99.90
13035;DHT22;6584;48.022;11.810;2022-09-09T00:18:14;15.20;99.90
13035;DHT22;6584;48.022;11.810;2022-09-09T00:20:44;15.10;99.90
13035;DHT22;6584;48.022;11.810;2022-09-09T00:23:25;15.10;99.90
13035;DHT22;6584;48.022;11.810;2022-09-09T00:26:11;15.10;99.90
13035;DHT22;6584;48.022;11.810;2022-09-09T00:28:48;15.10;99.90
13035;DHT22;6584;48.022;11.810;2022-09-09T00:31:20;15.00;99.90
13035;DHT22;6584;48.022;11.810;2022-09-09T00:33:49;14.90;99.90
13035;DHT22;6584;48.022;11.810;2022-09-09T00:36:19;14.90;99.90
13035;DHT22;6584;48.022;11.810;2022-09-09T00:38:59;15.00;99.90
13035;DHT22;6584;48.022;11.810;2022-09-09T00:41:55;15.00;99.90
13035;DHT22;6584;48.022;11.810;2022-09-09T00:44:30;15.00;99.90
13035;DHT22;6584;48.022;11.810;2022-09-09T00:55:39;15.10;99.90
13035;DHT22;6584;48.022;11.810;2022-09-09T00:58:08;15.10;99.90
13035;DHT22;6584;48.022;11.810;2022-09-09T01:00:42;15.20;99.90
13035;DHT22;6584;48.022;11.810;2022-09-09T01:03:22;15.20;99.90
13035;DHT22;6584;48.022;11.810;2022-09-09T01:11:22;15.30;99.90
13035;DHT22;6584;48.022;11.810;2022-09-09T01:13:58;15.30;99.90
13035;DHT22;6584;48.022;11.810;2022-09-09T01:16:26;15.20;99.90
13035;DHT22;6584;48.022;11.810;2022-09-09T01:18:54;15.20;99.90
13035;DHT22;6584;48.022;11.810;2022-09-09T01:24:40;15.20;99.90
13035;DHT22;6584;48.022;11.810;2022-09-09T01:27:05;15.20;99.90
13035;DHT22;6584;48.022;11.810;2022-09-09T01:29:32;15.20;99.90
13035;DHT22;6584;48.022;11.810;2022-09-09T01:32:02;15.20;99.90
13035;DHT22;6584;48.022;11.810;2022-09-09T01:34:35;15.20;99.90
13035;DHT22;6584;48.022;11.810;2022-09-09T01:37:04;15.30;99.90
13035;DHT22;6584;48.022;11.810;2022-09-09T01:39:32;15.20;99.90
13035;DHT22;6584;48.022;11.810;2022-09-09T01:41:58;15.20;99.90
13035;DHT22;6584;48.022;11.810;2022-09-09T01:44:25;15.20;99.90
13035;DHT22;6584;48.022;11.810;2022-09-09T01:46:51;15.20;99.90
13035;DHT22;6584;48.022;11.810;2022-09-09T01:49:17;15.20;99.90
13035;DHT22;6584;48.022;11.810;2022-09-09T01:51:46;15.20;99.90
13035;DHT22;6584;48.022;11.810;2022-09-09T01:54:14;15.20;99.90
13035;DHT22;6584;48.022;11.810;2022-09-09T01:56:46;15.20;99.90
13035;DHT22;6584;48.022;11.810;2022-09-09T02:01:53;15.20;99.90
13035;DHT22;6584;48.022;11.810;2022-09-09T02:04:35;15.20;99.90
13035;DHT22;6584;48.022;11.810;2022-09-09T02:07:02;15.20;99.90
13035;DHT22;6584;48.022;11.810;2022-09-09T02:09:30;15.40;99.90
13035;DHT22;6584;48.022;11.810;2022-09-09T02:12:14;15.40;99.90
13035;DHT22;6584;48.022;11.810;2022-09-09T02:14:47;15.40;99.90
13035;DHT22;6584;48.022;11.810;2022-09-09T02:17:19;15.40;99.90
13035;DHT22;6584;48.022;11.810;2022-09-09T02:20:05;15.40;99.90
13035;DHT22;6584;48.022;11.810;2022-09-09T02:22:34;15.20;99.90
13035;DHT22;6584;48.022;11.810;2022-09-09T02:25:01;15.20;99.90
13035;DHT22;6584;48.022;11.810;2022-09-09T02:27:27;15.30;99.90
13035;DHT22;6584;48.022;11.810;2022-09-09T02:29:55;15.30;99.90
13035;DHT22;6584;48.022;11.810;2022-09-09T02:32:23;15.30;99.90
13035;DHT22;6584;48.022;11.810;2022-09-09T02:34:54;15.30;99.90
13035;DHT22;6584;48.022;11.810;2022-09-09T02:37:24;15.30;99.90
13035;DHT22;6584;48.022;11.810;2022-09-09T02:39:54;15.30;99.90
13035;DHT22;6584;48.022;11.810;2022-09-09T02:42:20;15.30;99.90
13035;DHT22;6584;48.022;11.810;2022-09-09T02:44:46;15.20;99.90
13035;DHT22;6584;48.022;11.810;2022-09-09T02:50:25;15.30;99.90
13035;DHT22;6584;48.022;11.810;2022-09-09T02:53:15;15.30;99.90
13035;DHT22;6584;48.022;11.810;2022-09-09T02:58:20;15.20;99.90
13035;DHT22;6584;48.022;11.810;2022-09-09T03:00:48;15.20;99.90
13035;DHT22;6584;48.022;11.810;2022-09-09T03:03:15;15.10;99.90
13035;DHT22;6584;48.022;11.810;2022-09-09T03:05:42;15.20;99.90
13035;DHT22;6584;48.022;11.810;2022-09-09T03:08:08;15.20;99.90
13035;DHT22;6584;48.022;11.810;2022-09-09T03:10:35;15.20;99.90
13035;DHT22;6584;48.022;11.810;2022-09-09T03:13:00;15.20;99.90
13035;DHT22;6584;48.022;11.810;2022-09-09T03:15:26;15.20;99.90
13035;DHT22;6584;48.022;11.810;2022-09-09T03:17:57;15.20;99.90
13035;DHT22;6584;48.022;11.810;2022-09-09T03:20:26;15.30;99.90
13035;DHT22;6584;48.022;11.810;2022-09-09T03:22:53;15.30;99.90
13035;DHT22;6584;48.022;11.810;2022-09-09T03:25:19;15.20;99.90
13035;DHT22;6584;48.022;11.810;2022-09-09T03:27:44;15.20;99.90
13035;DHT22;6584;48.022;11.810;2022-09-09T03:30:10;15.20;99.90
13035;DHT22;6584;48.022;11.810;2022-09-09T03:32:36;15.10;99.90
13035;DHT22;6584;48.022;11.810;2022-09-09T03:35:02;15.10;99.90
13035;DHT22;6584;48.022;11.810;2022-09-09T03:37:28;15.10;99.90
13035;DHT22;6584;48.022;11.810;2022-09-09T03:39:53;15.20;99.90
13035;DHT22;6584;48.022;11.810;2022-09-09T03:42:22;15.30;99.90
13035;DHT22;6584;48.022;11.810;2022-09-09T03:44:48;15.30;99.90
13035;DHT22;6584;48.022;11.810;2022-09-09T03:47:16;15.30;99.90
13035;DHT22;6584;48.022;11.810;2022-09-09T03:49:42;15.20;99.90
13035;DHT22;6584;48.022;11.810;2022-09-09T03:52:09;15.20;99.90
13035;DHT22;6584;48.022;11.810;2022-09-09T03:54:34;15.10;99.90
13035;DHT22;6584;48.022;11.810;2022-09-09T03:57:01;15.10;99.90
13035;DHT22;6584;48.022;11.810;2022-09-09T03:59:26;15.10;99.90
13035;DHT22;6584;48.022;11.810;2022-09-09T04:01:53;15.10;99.90
13035;DHT22;6584;48.022;11.810;2022-09-09T04:04:19;15.00;99.90
13035;DHT22;6584;48.022;11.810;2022-09-09T04:06:45;14.90;99.90
13035;DHT22;6584;48.022;11.810;2022-09-09T04:09:11;14.90;99.90
13035;DHT22;6584;48.022;11.810;2022-09-09T04:11:37;15.00;99.90
13035;DHT22;6584;48.022;11.810;2022-09-09T04:14:03;15.00;99.90
13035;DHT22;6584;48.022;11.810;2022-09-09T04:16:31;15.00;99.90
13035;DHT22;6584;48.022;11.810;2022-09-09T04:18:57;14.90;99.90
13035;DHT22;6584;48.022;11.810;2022-09-09T04:21:23;15.00;99.90
13035;DHT22;6584;48.022;11.810;2022-09-09T04:23:49;15.00;99.90
13035;DHT22;6584;48.022;11.810;2022-09-09T04:26:14;15.00;99.90
13035;DHT22;6584;48.022;11.810;2022-09-09T04:28:40;15.00;99.90
13035;DHT22;6584;48.022;11.810;2022-09-09T04:31:15;15.00;99.90
13035;DHT22;6584;48.022;11.810;2022-09-09T04:33:41;15.00;99.90
13035;DHT22;6584;48.022;11.810;2022-09-09T04:36:07;15.00;99.90
13035;DHT22;6584;48.022;11.810;2022-09-09T04:38:32;15.00;99.90
13035;DHT22;6584;48.022;11.810;2022-09-09T04:40:58;14.90;99.90
13035;DHT22;6584;48.022;11.810;2022-09-09T04:43:23;14.90;99.90
13035;DHT22;6584;48.022;11.810;2022-09-09T04:45:51;14.90;99.90
13035;DHT22;6584;48.022;11.810;2022-09-09T04:48:17;15.00;99.90
13035;DHT22;6584;48.022;11.810;2022-09-09T04:50:43;14.90;99.90
13035;DHT22;6584;48.022;11.810;2022-09-09T04:53:09;15.00;99.90
13035;DHT22;6584;48.022;11.810;2022-09-09T04:55:35;15.00;99.90
13035;DHT22;6584;48.022;11.810;2022-09-09T04:58:08;15.00;99.90
13035;DHT22;6584;48.022;11.810;2022-09-09T05:00:35;15.00;99.90
13035;DHT22;6584;48.022;11.810;2022-09-09T05:03:05;15.00;99.90
13035;DHT22;6584;48.022;11.810;2022-09-09T05:05:32;15.00;99.90
13035;DHT22;6584;48.022;11.810;2022-09-09T05:08:06;15.00;99.90
13035;DHT22;6584;48.022;11.810;2022-09-09T05:10:34;15.10;99.90
13035;DHT22;6584;48.022;11.810;2022-09-09T05:13:01;15.00;99.90
13035;DHT22;6584;48.022;11.810;2022-09-09T05:15:27;15.00;99.90
13035;DHT22;6584;48.022;11.810;2022-09-09T05:17:52;15.00;99.90
13035;DHT22;6584;48.022;11.810;2022-09-09T05:20:22;15.10;99.90
13035;DHT22;6584;48.022;11.810;2022-09-09T05:22:47;15.00;99.90
13035;DHT22;6584;48.022;11.810;2022-09-09T05:25:13;15.00;99.90
13035;DHT22;6584;48.022;11.810;2022-09-09T05:27:39;15.00;99.90
13035;DHT22;6584;48.022;11.810;2022-09-09T05:30:04;15.10;99.90
13035;DHT22;6584;48.022;11.810;2022-09-09T05:32:30;15.10;99.90
13035;DHT22;6584;48.022;11.810;2022-09-09T05:34:59;15.20;99.90
13035;DHT22;6584;48.022;11.810;2022-09-09T05:37:24;15.40;99.90
13035;DHT22;6584;48.022;11.810;2022-09-09T05:39:50;15.40;99.90
13035;DHT22;6584;48.022;11.810;2022-09-09T05:42:16;15.40;99.90
13035;DHT22;6584;48.022;11.810;2022-09-09T05:44:42;15.50;99.90
13035;DHT22;6584;48.022;11.810;2022-09-09T05:47:08;15.40;99.90
13035;DHT22;6584;48.022;11.810;2022-09-09T05:49:34;15.50;99.90
13035;DHT22;6584;48.022;11.810;2022-09-09T05:52:00;15.40;99.90
13035;DHT22;6584;48.022;11.810;2022-09-09T05:54:26;15.50;99.90
13035;DHT22;6584;48.022;11.810;2022-09-09T05:56:51;15.40;99.90
13035;DHT22;6584;48.022;11.810;2022-09-09T05:59:19;15.50;99.90
13035;DHT22;6584;48.022;11.810;2022-09-09T06:01:45;15.40;99.90
13035;DHT22;6584;48.022;11.810;2022-09-09T06:04:10;15.40;99.90
13035;DHT22;6584;48.022;11.810;2022-09-09T06:06:37;15.40;99.90
13035;DHT22;6584;48.022;11.810;2022-09-09T06:09:06;15.40;99.90
13035;DHT22;6584;48.022;11.810;2022-09-09T06:11:35;15.40;99.90
13035;DHT22;6584;48.022;11.810;2022-09-09T06:14:01;15.40;99.90
13035;DHT22;6584;48.022;11.810;2022-09-09T06:16:29;15.40;99.90
13035;DHT22;6584;48.022;11.810;2022-09-09T06:18:56;15.30;99.90
13035;DHT22;6584;48.022;11.810;2022-09-09T06:23:49;15.30;99.90
13035;DHT22;6584;48.022;11.810;2022-09-09T06:26:32;15.40;99.90
13035;DHT22;6584;48.022;11.810;2022-09-09T06:29:00;15.40;99.90
13035;DHT22;6584;48.022;11.810;2022-09-09T06:31:28;15.40;99.90
13035;DHT22;6584;48.022;11.810;2022-09-09T06:33:56;15.40;99.90
13035;DHT22;6584;48.022;11.810;2022-09-09T06:36:24;15.50;99.90
13035;DHT22;6584;48.022;11.810;2022-09-09T06:38:50;15.40;99.90
13035;DHT22;6584;48.022;11.810;2022-09-09T06:41:17;15.50;99.90
13035;DHT22;6584;48.022;11.810;2022-09-09T06:43:44;15.40;99.90
13035;DHT22;6584;48.022;11.810;2022-09-09T06:46:15;15.40;99.90
13035;DHT22;6584;48.022;11.810;2022-09-09T06:48:42;15.60;99.90
13035;DHT22;6584;48.022;11.810;2022-09-09T06:53:37;15.60;99.90
13035;DHT22;6584;48.022;11.810;2022-09-09T06:56:26;15.60;99.90
13035;DHT22;6584;48.022;11.810;2022-09-09T06:58:53;15.70;99.90
13035;DHT22;6584;48.022;11.810;2022-09-09T07:01:25;15.70;99.90
13035;DHT22;6584;48.022;11.810;2022-09-09T07:03:53;15.70;99.90
13035;DHT22;6584;48.022;11.810;2022-09-09T07:06:24;15.70;99.90
13035;DHT22;6584;48.022;11.810;2022-09-09T07:08:55;15.70;99.90
13035;DHT22;6584;48.022;11.810;2022-09-09T07:11:22;15.80;99.90
13035;DHT22;6584;48.022;11.810;2022-09-09T07:13:49;15.80;99.90
13035;DHT22;6584;48.022;11.810;2022-09-09T07:16:17;15.80;99.90
13035;DHT22;6584;48.022;11.810;2022-09-09T07:18:43;15.80;99.90
13035;DHT22;6584;48.022;11.810;2022-09-09T07:21:10;15.80;99.90
13035;DHT22;6584;48.022;11.810;2022-09-09T07:23:37;15.80;99.90
13035;DHT22;6584;48.022;11.810;2022-09-09T07:26:11;15.90;99.90
13035;DHT22;6584;48.022;11.810;2022-09-09T07:28:37;15.90;99.90
13035;DHT22;6584;48.022;11.810;2022-09-09T07:31:04;15.90;99.90
13035;DHT22;6584;48.022;11.810;2022-09-09T07:33:31;15.90;99.90
13035;DHT22;6584;48.022;11.810;2022-09-09T07:36:22;16.00;99.90
13035;DHT22;6584;48.022;11.810;2022-09-09T07:38:50;16.10;99.90
13035;DHT22;6584;48.022;11.810;2022-09-09T07:41:19;16.10;99.90
13035;DHT22;6584;48.022;11.810;2022-09-09T07:43:47;16.10;99.90
13035;DHT22;6584;48.022;11.810;2022-09-09T07:46:15;16.20;99.90
13035;DHT22;6584;48.022;11.810;2022-09-09T07:48:45;16.10;99.90
13035;DHT22;6584;48.022;11.810;2022-09-09T07:51:14;16.10;99.90
13035;DHT22;6584;48.022;11.810;2022-09-09T07:53:42;16.10;99.90
13035;DHT22;6584;48.022;11.810;2022-09-09T07:56:11;16.00;99.90
13035;DHT22;6584;48.022;11.810;2022-09-09T07:58:38;16.00;99.90
13035;DHT22;6584;48.022;11.810;2022-09-09T08:01:15;15.90;99.90
13035;DHT22;6584;48.022;11.810;2022-09-09T08:03:44;16.00;99.90
13035;DHT22;6584;48.022;11.810;2022-09-09T08:06:10;15.90;99.90
13035;DHT22;6584;48.022;11.810;2022-09-09T08:08:37;15.90;99.90
13035;DHT22;6584;48.022;11.810;2022-09-09T08:11:13;15.90;99.90
13035;DHT22;6584;48.022;11.810;2022-09-09T08:13:40;15.90;99.90
13035;DHT22;6584;48.022;11.810;2022-09-09T08:16:12;15.80;99.90
13035;DHT22;6584;48.022;11.810;2022-09-09T08:18:38;15.80;99.90
13035;DHT22;6584;48.022;11.810;2022-09-09T08:21:12;15.80;99.90
13035;DHT22;6584;48.022;11.810;2022-09-09T08:23:42;15.70;99.90
13035;DHT22;6584;48.022;11.810;2022-09-09T08:26:13;15.70;99.90
13035;DHT22;6584;48.022;11.810;2022-09-09T08:28:41;15.70;99.90
13035;DHT22;6584;48.022;11.810;2022-09-09T08:33:36;15.80;99.90
13035;DHT22;6584;48.022;11.810;2022-09-09T08:36:04;15.80;99.90
13035;DHT22;6584;48.022;11.810;2022-09-09T08:38:30;15.80;99.90
13035;DHT22;6584;48.022;11.810;2022-09-09T08:43:46;15.90;99.90
13035;DHT22;6584;48.022;11.810;2022-09-09T08:46:24;15.90;99.90
13035;DHT22;6584;48.022;11.810;2022-09-09T08:48:57;15.90;99.90
13035;DHT22;6584;48.022;11.810;2022-09-09T08:51:26;15.90;99.90
13035;DHT22;6584;48.022;11.810;2022-09-09T08:53:54;15.90;99.90
13035;DHT22;6584;48.022;11.810;2022-09-09T08:56:24;15.90;99.90
13035;DHT22;6584;48.022;11.810;2022-09-09T08:58:52;15.90;99.90
13035;DHT22;6584;48.022;11.810;2022-09-09T09:01:44;16.00;99.90
13035;DHT22;6584;48.022;11.810;2022-09-09T09:07:16;15.90;99.90
13035;DHT22;6584;48.022;11.810;2022-09-09T09:12:25;15.80;99.90
13035;DHT22;6584;48.022;11.810;2022-09-09T09:14:52;15.70;99.90
13035;DHT22;6584;48.022;11.810;2022-09-09T09:17:20;15.80;99.90
13035;DHT22;6584;48.022;11.810;2022-09-09T09:19:47;15.90;99.90
13035;DHT22;6584;48.022;11.810;2022-09-09T09:22:22;15.80;99.90
13035;DHT22;6584;48.022;11.810;2022-09-09T09:27:35;15.90;99.90
13035;DHT22;6584;48.022;11.810;2022-09-09T09:30:12;16.00;99.90
13035;DHT22;6584;48.022;11.810;2022-09-09T09:32:40;16.00;99.90
13035;DHT22;6584;48.022;11.810;2022-09-09T09:35:12;16.00;99.90
13035;DHT22;6584;48.022;11.810;2022-09-09T09:37:40;16.00;99.90
13035;DHT22;6584;48.022;11.810;2022-09-09T09:40:17;16.00;99.90
13035;DHT22;6584;48.022;11.810;2022-09-09T09:43:00;16.00;99.90
13035;DHT22;6584;48.022;11.810;2022-09-09T09:45:42;16.00;99.90
13035;DHT22;6584;48.022;11.810;2022-09-09T09:48:13;16.00;99.90
13035;DHT22;6584;48.022;11.810;2022-09-09T09:51:07;16.00;99.90
13035;DHT22;6584;48.022;11.810;2022-09-09T09:53:36;16.00;99.90
13035;DHT22;6584;48.022;11.810;2022-09-09T09:56:11;16.10;99.90
13035;DHT22;6584;48.022;11.810;2022-09-09T09:58:50;16.10;99.90
13035;DHT22;6584;48.022;11.810;2022-09-09T10:01:26;16.10;99.90
13035;DHT22;6584;48.022;11.810;2022-09-09T10:04:13;16.20;99.90
13035;DHT22;6584;48.022;11.810;2022-09-09T10:06:40;16.20;99.90
13035;DHT22;6584;48.022;11.810;2022-09-09T10:09:26;16.30;99.90
13035;DHT22;6584;48.022;11.810;2022-09-09T10:12:15;16.30;99.90
13035;DHT22;6584;48.022;11.810;2022-09-09T10:29:15;17.00;99.90
13035;DHT22;6584;48.022;11.810;2022-09-09T10:32:07;17.00;99.90
13035;DHT22;6584;48.022;11.810;2022-09-09T10:40:22;17.10;99.90
13035;DHT22;6584;48.022;11.810;2022-09-09T10:42:53;17.10;99.90
13035;DHT22;6584;48.022;11.810;2022-09-09T10:45:36;17.10;99.90
13035;DHT22;6584;48.022;11.810;2022-09-09T10:48:18;17.10;99.90
13035;DHT22;6584;48.022;11.810;2022-09-09T10:51:28;17.10;99.90
13035;DHT22;6584;48.022;11.810;2022-09-09T10:54:35;17.10;99.90
13035;DHT22;6584;48.022;11.810;2022-09-09T10:56:58;16.90;99.90
13035;DHT22;6584;48.022;11.810;2022-09-09T10:59:32;16.80;99.90
13035;DHT22;6584;48.022;11.810;2022-09-09T11:02:17;16.80;99.90
13035;DHT22;6584;48.022;11.810;2022-09-09T11:04:55;16.80;99.90
13035;DHT22;6584;48.022;11.810;2022-09-09T11:07:34;16.80;99.90
13035;DHT22;6584;48.022;11.810;2022-09-09T11:10:12;16.70;99.90
13035;DHT22;6584;48.022;11.810;2022-09-09T11:12:43;16.70;99.90
13035;DHT22;6584;48.022;11.810;2022-09-09T11:15:41;16.70;99.90
13035;DHT22;6584;48.022;11.810;2022-09-09T11:18:13;16.70;99.90
13035;DHT22;6584;48.022;11.810;2022-09-09T11:20:39;16.70;99.90
13035;DHT22;6584;48.022;11.810;2022-09-09T11:23:15;16.70;99.90
13035;DHT22;6584;48.022;11.810;2022-09-09T11:25:48;16.80;99.90
13035;DHT22;6584;48.022;11.810;2022-09-09T11:28:51;16.90;99.90
13035;DHT22;6584;48.022;11.810;2022-09-09T11:32:03;16.90;99.90
13035;DHT22;6584;48.022;11.810;2022-09-09T11:34:40;17.00;99.90
13035;DHT22;6584;48.022;11.810;2022-09-09T11:40:15;17.20;99.90
13035;DHT22;6584;48.022;11.810;2022-09-09T11:42:42;17.10;99.90
13035;DHT22;6584;48.022;11.810;2022-09-09T11:45:10;17.20;99.90
13035;DHT22;6584;48.022;11.810;2022-09-09T11:47:36;17.20;99.90
13035;DHT22;6584;48.022;11.810;2022-09-09T11:50:29;17.20;99.90
13035;DHT22;6584;48.022;11.810;2022-09-09T11:55:39;17.30;99.90
13035;DHT22;6584;48.022;11.810;2022-09-09T12:00:39;17.40;99.90
13035;DHT22;6584;48.022;11.810;2022-09-09T12:03:39;17.40;99.90
13035;DHT22;6584;48.022;11.810;2022-09-09T12:08:49;17.50;99.90
13035;DHT22;6584;48.022;11.810;2022-09-09T12:11:30;17.60;99.90
13035;DHT22;6584;48.022;11.810;2022-09-09T12:13:57;17.70;99.90
13035;DHT22;6584;48.022;11.810;2022-09-09T12:16:30;17.70;99.90
13035;DHT22;6584;48.022;11.810;2022-09-09T12:19:18;17.70;99.90
13035;DHT22;6584;48.022;11.810;2022-09-09T12:24:51;17.90;99.90
13035;DHT22;6584;48.022;11.810;2022-09-09T12:27:33;17.90;99.90
13035;DHT22;6584;48.022;11.810;2022-09-09T12:30:04;17.90;99.90
13035;DHT22;6584;48.022;11.810;2022-09-09T12:32:34;17.80;99.90
13035;DHT22;6584;48.022;11.810;2022-09-09T12:35:10;17.80;99.90
13035;DHT22;6584;48.022;11.810;2022-09-09T12:37:56;17.80;99.90
13035;DHT22;6584;48.022;11.810;2022-09-09T12:40:34;17.90;99.90
13035;DHT22;6584;48.022;11.810;2022-09-09T12:43:16;17.80;99.90
13035;DHT22;6584;48.022;11.810;2022-09-09T12:45:42;17.80;99.90
13035;DHT22;6584;48.022;11.810;2022-09-09T12:48:09;17.80;99.90
13035;DHT22;6584;48.022;11.810;2022-09-09T12:50:43;17.90;99.90
13035;DHT22;6584;48.022;11.810;2022-09-09T12:55:51;17.90;99.90
13035;DHT22;6584;48.022;11.810;2022-09-09T12:58:19;17.90;99.90
13035;DHT22;6584;48.022;11.810;2022-09-09T13:00:53;18.00;99.90
13035;DHT22;6584;48.022;11.810;2022-09-09T13:03:20;18.10;99.90
13035;DHT22;6584;48.022;11.810;2022-09-09T13:05:47;18.00;99.90
13035;DHT22;6584;48.022;11.810;2022-09-09T13:08:14;18.10;99.90
13035;DHT22;6584;48.022;11.810;2022-09-09T13:10:49;18.20;99.90
13035;DHT22;6584;48.022;11.810;2022-09-09T13:13:23;18.30;99.90
13035;DHT22;6584;48.022;11.810;2022-09-09T13:15:53;18.30;99.90
13035;DHT22;6584;48.022;11.810;2022-09-09T13:18:27;18.30;99.90
13035;DHT22;6584;48.022;11.810;2022-09-09T13:20:53;18.30;99.90
13035;DHT22;6584;48.022;11.810;2022-09-09T13:23:20;18.30;99.90
13035;DHT22;6584;48.022;11.810;2022-09-09T13:25:55;18.20;99.90
13035;DHT22;6584;48.022;11.810;2022-09-09T13:28:23;18.20;99.90
13035;DHT22;6584;48.022;11.810;2022-09-09T13:30:57;18.20;99.90
13035;DHT22;6584;48.022;11.810;2022-09-09T13:33:30;18.20;99.90
13035;DHT22;6584;48.022;11.810;2022-09-09T13:36:07;18.10;99.90
13035;DHT22;6584;48.022;11.810;2022-09-09T13:38:53;18.10;99.90
13035;DHT22;6584;48.022;11.810;2022-09-09T13:41:24;18.10;99.90
13035;DHT22;6584;48.022;11.810;2022-09-09T13:43:51;18.00;99.90
13035;DHT22;6584;48.022;11.810;2022-09-09T13:46:37;17.90;99.90
13035;DHT22;6584;48.022;11.810;2022-09-09T13:49:22;17.70;99.90
13035;DHT22;6584;48.022;11.810;2022-09-09T13:51:50;17.70;99.90
13035;DHT22;6584;48.022;11.810;2022-09-09T13:54:18;17.70;99.90
13035;DHT22;6584;48.022;11.810;2022-09-09T13:56:45;17.80;99.90
13035;DHT22;6584;48.022;11.810;2022-09-09T13:59:13;17.80;99.90
13035;DHT22;6584;48.022;11.810;2022-09-09T14:01:39;17.90;99.90
13035;DHT22;6584;48.022;11.810;2022-09-09T14:04:05;17.90;99.90
13035;DHT22;6584;48.022;11.810;2022-09-09T14:06:32;17.90;99.90
13035;DHT22;6584;48.022;11.810;2022-09-09T14:08:58;17.90;99.90
13035;DHT22;6584;48.022;11.810;2022-09-09T14:11:24;17.90;99.90
13035;DHT22;6584;48.022;11.810;2022-09-09T14:13:49;17.90;99.90
13035;DHT22;6584;48.022;11.810;2022-09-09T14:16:16;17.90;99.90
13035;DHT22;6584;48.022;11.810;2022-09-09T14:18:43;17.90;99.90
13035;DHT22;6584;48.022;11.810;2022-09-09T14:21:09;17.80;99.90
13035;DHT22;6584;48.022;11.810;2022-09-09T14:23:35;17.80;99.90
13035;DHT22;6584;48.022;11.810;2022-09-09T14:26:01;17.70;99.90
13035;DHT22;6584;48.022;11.810;2022-09-09T14:28:26;17.70;99.90
13035;DHT22;6584;48.022;11.810;2022-09-09T14:30:53;17.70;99.90
13035;DHT22;6584;48.022;11.810;2022-09-09T14:33:19;17.70;99.90
13035;DHT22;6584;48.022;11.810;2022-09-09T14:35:45;17.70;99.90
13035;DHT22;6584;48.022;11.810;2022-09-09T14:38:11;17.70;99.90
13035;DHT22;6584;48.022;11.810;2022-09-09T14:40:37;17.60;99.90
13035;DHT22;6584;48.022;11.810;2022-09-09T14:43:04;17.70;99.90
13035;DHT22;6584;48.022;11.810;2022-09-09T14:45:29;17.70;99.90
13035;DHT22;6584;48.022;11.810;2022-09-09T14:47:55;17.80;99.90
13035;DHT22;6584;48.022;11.810;2022-09-09T14:50:21;17.80;99.90
13035;DHT22;6584;48.022;11.810;2022-09-09T14:52:47;17.90;99.90
13035;DHT22;6584;48.022;11.810;2022-09-09T14:55:13;17.90;99.90
13035;DHT22;6584;48.022;11.810;2022-09-09T14:57:39;17.90;99.90
13035;DHT22;6584;48.022;11.810;2022-09-09T15:00:07;17.90;99.90
13035;DHT22;6584;48.022;11.810;2022-09-09T15:02:33;17.90;99.90
13035;DHT22;6584;48.022;11.810;2022-09-09T15:04:59;18.00;99.90
13035;DHT22;6584;48.022;11.810;2022-09-09T15:07:25;18.00;99.90
13035;DHT22;6584;48.022;11.810;2022-09-09T15:09:52;18.00;99.90
13035;DHT22;6584;48.022;11.810;2022-09-09T15:12:18;18.00;99.90
13035;DHT22;6584;48.022;11.810;2022-09-09T15:14:45;18.10;99.90
13035;DHT22;6584;48.022;11.810;2022-09-09T15:17:10;18.10;99.90
13035;DHT22;6584;48.022;11.810;2022-09-09T15:19:36;18.10;99.90
13035;DHT22;6584;48.022;11.810;2022-09-09T15:22:03;18.20;99.90
13035;DHT22;6584;48.022;11.810;2022-09-09T15:24:31;18.10;99.90
13035;DHT22;6584;48.022;11.810;2022-09-09T15:26:56;18.00;99.90
13035;DHT22;6584;48.022;11.810;2022-09-09T15:29:23;18.00;99.90
13035;DHT22;6584;48.022;11.810;2022-09-09T15:31:48;18.00;99.90
13035;DHT22;6584;48.022;11.810;2022-09-09T15:34:14;18.00;99.90
13035;DHT22;6584;48.022;11.810;2022-09-09T15:36:43;17.90;99.90
13035;DHT22;6584;48.022;11.810;2022-09-09T15:39:13;17.90;99.90
13035;DHT22;6584;48.022;11.810;2022-09-09T15:41:45;18.00;99.90
13035;DHT22;6584;48.022;11.810;2022-09-09T15:44:11;17.90;99.90
13035;DHT22;6584;48.022;11.810;2022-09-09T15:46:42;17.90;99.90
13035;DHT22;6584;48.022;11.810;2022-09-09T15:49:20;17.90;99.90
13035;DHT22;6584;48.022;11.810;2022-09-09T15:51:59;17.90;99.90
13035;DHT22;6584;48.022;11.810;2022-09-09T15:54:31;17.90;99.90
13035;DHT22;6584;48.022;11.810;2022-09-09T15:57:01;17.80;99.90
13035;DHT22;6584;48.022;11.810;2022-09-09T15:59:28;17.80;99.90
13035;DHT22;6584;48.022;11.810;2022-09-09T16:01:54;17.80;99.90
13035;DHT22;6584;48.022;11.810;2022-09-09T16:04:22;17.80;99.90
13035;DHT22;6584;48.022;11.810;2022-09-09T16:06:55;17.80;99.90
13035;DHT22;6584;48.022;11.810;2022-09-09T16:09:22;17.60;99.90
13035;DHT22;6584;48.022;11.810;2022-09-09T16:11:48;17.50;99.90
13035;DHT22;6584;48.022;11.810;2022-09-09T16:14:14;17.40;99.90
13035;DHT22;6584;48.022;11.810;2022-09-09T16:16:41;17.40;99.90
13035;DHT22;6584;48.022;11.810;2022-09-09T16:19:10;17.40;99.90
13035;DHT22;6584;48.022;11.810;2022-09-09T16:21:56;17.30;99.90
13035;DHT22;6584;48.022;11.810;2022-09-09T16:24:22;17.30;99.90
13035;DHT22;6584;48.022;11.810;2022-09-09T16:26:50;17.20;99.90
13035;DHT22;6584;48.022;11.810;2022-09-09T16:29:17;17.20;99.90
13035;DHT22;6584;48.022;11.810;2022-09-09T16:31:44;17.10;99.90
13035;DHT22;6584;48.022;11.810;2022-09-09T16:34:10;17.00;99.90
13035;DHT22;6584;48.022;11.810;2022-09-09T16:36:38;17.10;99.90
13035;DHT22;6584;48.022;11.810;2022-09-09T16:39:08;17.10;99.90
13035;DHT22;6584;48.022;11.810;2022-09-09T16:41:35;17.00;99.90
13035;DHT22;6584;48.022;11.810;2022-09-09T16:44:03;16.90;99.90
13035;DHT22;6584;48.022;11.810;2022-09-09T16:46:30;17.00;99.90
13035;DHT22;6584;48.022;11.810;2022-09-09T16:48:57;17.10;99.90
13035;DHT22;6584;48.022;11.810;2022-09-09T16:51:27;17.10;99.90
13035;DHT22;6584;48.022;11.810;2022-09-09T16:53:54;17.00;99.90
13035;DHT22;6584;48.022;11.810;2022-09-09T16:56:23;16.90;99.90
13035;DHT22;6584;48.022;11.810;2022-09-09T16:58:55;17.10;99.90
13035;DHT22;6584;48.022;11.810;2022-09-09T17:01:22;17.10;99.90
13035;DHT22;6584;48.022;11.810;2022-09-09T17:03:55;17.10;99.90
13035;DHT22;6584;48.022;11.810;2022-09-09T17:06:21;17.00;99.90
13035;DHT22;6584;48.022;11.810;2022-09-09T17:08:46;17.00;99.90
13035;DHT22;6584;48.022;11.810;2022-09-09T17:11:16;17.00;99.90
13035;DHT22;6584;48.022;11.810;2022-09-09T17:13:44;17.10;99.90
13035;DHT22;6584;48.022;11.810;2022-09-09T17:16:11;17.00;99.90
13035;DHT22;6584;48.022;11.810;2022-09-09T17:18:37;17.00;99.90